Time;durP1;ratioP1;P1;durP2;ratioP2;P2;SDS_P1;SDS_P2;PMS_P1;PMS_P2;Temp;Humidity;BMP_temperature;BMP_pressure;BME280_temperature;BME280_humidity;BME280_pressure;Samples;Min_cycle;Max_cycle;Signal;HPM_P1;HPM_P2
2022/12/01 00:01:30;;;;;;;4.20;2.25;;;16.50;55.60;;;;;;5088547;28;45323;-74
2022/12/01 00:03:57;;;;;;;4.07;2.42;;;16.50;55.60;;;;;;5088451;28;45372;-73
2022/12/01 00:06:23;;;;;;;3.38;2.47;;;16.50;55.60;;;;;;5088455;28;46197;-73
2022/12/01 00:11:36;;;;;;;3.33;2.17;;;16.50;55.60;;;;;;5089020;28;45403;-73
2022/12/01 00:14:03;;;;;;;3.38;1.85;;;16.50;55.60;;;;;;5087931;27;45452;-74
2022/12/01 00:16:31;;;;;;;2.55;2.20;;;16.50;55.60;;;;;;5088574;28;45144;-74
2022/12/01 00:18:58;;;;;;;3.03;2.50;;;16.50;55.60;;;;;;5088336;28;45282;-73
2022/12/01 00:21:25;;;;;;;2.10;1.90;;;16.40;55.60;;;;;;5088629;28;45314;-73
2022/12/01 00:23:53;;;;;;;2.58;2.20;;;16.40;56.20;;;;;;5088940;28;45366;-73
2022/12/01 00:26:20;;;;;;;2.45;2.10;;;16.40;55.60;;;;;;5087883;28;46739;-73
2022/12/01 00:28:48;;;;;;;3.40;2.30;;;16.40;55.60;;;;;;5087913;28;45193;-73
2022/12/01 00:31:15;;;;;;;2.67;2.03;;;16.40;55.70;;;;;;5087878;28;45407;-73
2022/12/01 00:33:43;;;;;;;2.20;1.90;;;16.40;55.70;;;;;;5087898;28;45396;-73
2022/12/01 00:36:10;;;;;;;1.90;1.80;;;16.40;55.60;;;;;;5087764;28;46437;-73
2022/12/01 00:38:37;;;;;;;2.25;2.05;;;16.40;55.60;;;;;;5087589;28;45229;-74
2022/12/01 00:41:04;;;;;;;2.67;1.90;;;16.40;55.60;;;;;;5087885;28;45221;-74
2022/12/01 00:43:31;;;;;;;2.55;2.35;;;16.40;55.60;;;;;;5087777;28;45388;-74
2022/12/01 00:45:58;;;;;;;1.95;1.77;;;16.40;55.60;;;;;;5089678;27;45367;-73
2022/12/01 00:48:25;;;;;;;2.70;2.00;;;16.40;55.60;;;;;;5090288;27;45278;-73
2022/12/01 00:50:54;;;;;;;2.60;2.20;;;16.40;55.60;;;;;;5087441;28;45193;-74
2022/12/01 00:53:21;;;;;;;2.42;2.10;;;16.40;55.70;;;;;;5087894;28;45351;-74
2022/12/01 00:55:48;;;;;;;2.10;1.88;;;16.40;55.60;;;;;;5087374;28;46507;-74
2022/12/01 00:58:15;;;;;;;1.80;1.70;;;16.40;55.70;;;;;;5087359;28;45378;-74
2022/12/01 01:00:42;;;;;;;2.25;2.05;;;16.40;55.60;;;;;;5087411;28;45262;-74
2022/12/01 01:03:09;;;;;;;1.77;1.67;;;16.40;55.60;;;;;;5087721;28;45187;-74
2022/12/01 01:05:36;;;;;;;2.22;2.00;;;16.40;55.60;;;;;;5087140;28;46592;-73
2022/12/01 01:08:06;;;;;;;2.67;1.88;;;16.30;55.60;;;;;;5087140;28;45350;-73
2022/12/01 01:10:33;;;;;;;2.90;2.17;;;16.30;55.60;;;;;;5087305;28;45270;-73
2022/12/01 01:13:00;;;;;;;2.50;1.75;;;16.30;55.70;;;;;;5087601;28;45559;-73
2022/12/01 01:15:27;;;;;;;2.22;2.03;;;16.30;55.70;;;;;;5087087;28;46707;-73
2022/12/01 01:17:54;;;;;;;2.53;1.98;;;16.30;55.70;;;;;;5087163;28;45323;-73
2022/12/01 01:20:21;;;;;;;1.92;1.83;;;16.30;55.70;;;;;;5087110;28;45284;-73
2022/12/01 01:22:48;;;;;;;2.70;1.98;;;16.30;55.70;;;;;;5087408;28;45649;-73
2022/12/01 01:25:16;;;;;;;2.42;2.22;;;16.30;55.70;;;;;;5086921;27;47794;-73
2022/12/01 01:27:43;;;;;;;2.53;2.00;;;16.30;55.70;;;;;;5086997;28;45331;-73
2022/12/01 01:30:11;;;;;;;2.13;1.92;;;16.30;55.80;;;;;;5087131;28;45379;-73
2022/12/01 01:32:38;;;;;;;3.13;2.10;;;16.30;55.80;;;;;;5087287;28;45206;-73
2022/12/01 01:35:07;;;;;;;2.72;2.10;;;16.30;55.80;;;;;;5086689;28;45561;-73
2022/12/01 01:37:34;;;;;;;2.20;1.77;;;16.20;55.80;;;;;;5086784;28;45318;-74
2022/12/01 01:40:00;;;;;;;2.30;2.10;;;16.20;55.80;;;;;;5086740;28;45189;-73
2022/12/01 01:42:29;;;;;;;2.80;2.28;;;16.20;55.80;;;;;;5087086;28;45404;-73
2022/12/01 01:44:56;;;;;;;2.47;2.05;;;16.30;55.80;;;;;;5086538;28;45472;-73
2022/12/01 01:47:25;;;;;;;3.10;2.10;;;16.20;55.80;;;;;;5091788;27;45325;-73
2022/12/01 01:49:52;;;;;;;2.63;2.42;;;16.20;55.90;;;;;;5086637;28;45176;-74
2022/12/01 01:52:19;;;;;;;2.15;1.92;;;16.20;55.80;;;;;;5086710;28;45462;-74
2022/12/01 01:54:47;;;;;;;3.63;2.30;;;16.20;55.90;;;;;;5086369;28;45464;-73
2022/12/01 01:57:17;;;;;;;2.45;2.25;;;16.20;55.90;;;;;;5086369;28;45435;-74
2022/12/01 01:59:47;;;;;;;2.60;2.40;;;16.20;55.90;;;;;;5086491;28;45189;-73
2022/12/01 02:02:14;;;;;;;2.33;1.92;;;16.10;55.90;;;;;;5086663;28;45558;-74
2022/12/01 02:04:42;;;;;;;2.25;2.05;;;16.20;56.00;;;;;;5086448;28;47048;-74
2022/12/01 02:07:09;;;;;;;2.55;2.10;;;16.10;56.00;;;;;;5086324;28;45266;-73
2022/12/01 02:09:36;;;;;;;2.50;2.30;;;16.10;56.00;;;;;;5086387;28;45188;-74
2022/12/01 02:12:12;;;;;;;2.60;2.40;;;16.10;56.00;;;;;;5086708;28;45370;-73
2022/12/01 02:14:55;;;;;;;2.28;2.08;;;16.10;56.10;;;;;;5086030;28;46805;-73
2022/12/01 02:17:26;;;;;;;2.95;2.63;;;16.20;56.10;;;;;;5086190;28;45356;-74
2022/12/01 02:20:27;;;;;;;3.38;2.67;;;16.30;55.90;;;;;;5086362;28;45272;-73
2022/12/01 02:23:01;;;;;;;2.35;2.05;;;16.30;55.80;;;;;;5086291;28;45416;-74
2022/12/01 02:25:33;;;;;;;2.72;2.22;;;16.30;55.50;;;;;;5085927;28;45402;-73
2022/12/01 02:28:17;;;;;;;2.25;2.05;;;16.40;55.40;;;;;;5086067;28;45208;-73
2022/12/01 02:30:47;;;;;;;2.40;2.10;;;16.40;55.30;;;;;;5085964;28;45348;-73
2022/12/01 02:33:17;;;;;;;2.95;2.05;;;16.40;55.10;;;;;;5086204;28;45408;-73
2022/12/01 02:35:46;;;;;;;2.50;2.17;;;16.50;55.10;;;;;;5085125;28;45281;-74
2022/12/01 02:38:15;;;;;;;2.22;2.00;;;16.40;55.10;;;;;;5085858;28;45332;-74
2022/12/01 02:40:45;;;;;;;2.72;2.30;;;16.50;55.10;;;;;;5086163;28;45280;-73
2022/12/01 02:43:16;;;;;;;3.45;2.67;;;16.40;55.00;;;;;;5086131;28;45429;-73
2022/12/01 02:45:47;;;;;;;5.40;2.75;;;16.40;55.10;;;;;;5085590;28;45437;-73
2022/12/01 02:48:16;;;;;;;2.97;2.35;;;16.40;55.00;;;;;;5097440;27;45400;-73
2022/12/01 02:50:43;;;;;;;3.42;2.75;;;16.40;55.10;;;;;;5106264;27;45332;-73
2022/12/01 02:53:11;;;;;;;2.83;2.28;;;16.40;55.00;;;;;;5106635;27;45214;-73
2022/12/01 02:55:45;;;;;;;3.05;2.65;;;16.30;55.00;;;;;;5106264;27;45572;-73
2022/12/01 02:58:14;;;;;;;2.95;2.63;;;16.30;55.10;;;;;;5106129;27;45461;-73
2022/12/01 03:00:41;;;;;;;2.97;2.60;;;16.30;55.20;;;;;;5106105;27;45329;-73
2022/12/01 03:03:24;;;;;;;3.28;2.42;;;16.30;55.20;;;;;;5106723;27;45260;-73
2022/12/01 03:05:53;;;;;;;2.65;2.20;;;16.30;55.20;;;;;;5105920;27;45276;-73
2022/12/01 03:08:22;;;;;;;3.33;2.60;;;16.30;55.30;;;;;;5106143;27;45203;-73
2022/12/01 03:10:52;;;;;;;2.95;2.50;;;16.30;55.30;;;;;;5106129;27;45316;-73
2022/12/01 03:13:21;;;;;;;3.42;2.63;;;16.30;55.80;;;;;;5106580;27;45168;-74
2022/12/01 03:15:53;;;;;;;3.35;2.60;;;16.30;55.80;;;;;;5105863;27;45855;-73
2022/12/01 03:18:27;;;;;;;3.15;2.60;;;16.30;55.30;;;;;;5106031;27;45193;-73
2022/12/01 03:20:57;;;;;;;2.80;2.38;;;16.30;55.30;;;;;;5106059;27;45219;-73
2022/12/01 03:23:25;;;;;;;3.20;2.30;;;16.20;55.30;;;;;;5106166;27;45456;-73
2022/12/01 03:25:52;;;;;;;3.42;2.60;;;16.20;55.30;;;;;;5105664;27;45200;-73
2022/12/01 03:28:22;;;;;;;2.58;2.25;;;16.20;55.30;;;;;;5105868;27;45181;-73
2022/12/01 03:30:49;;;;;;;2.45;2.15;;;16.20;55.30;;;;;;5105976;27;45342;-73
2022/12/01 03:33:17;;;;;;;2.63;2.42;;;16.20;55.30;;;;;;5106145;27;45351;-73
2022/12/01 03:35:48;;;;;;;2.75;2.40;;;16.20;55.30;;;;;;5105726;27;45280;-73
2022/12/01 03:38:16;;;;;;;3.28;2.53;;;16.20;55.30;;;;;;5105611;27;45324;-73
2022/12/01 03:40:43;;;;;;;3.47;2.30;;;16.20;55.40;;;;;;5105842;27;45201;-73
2022/12/01 03:43:11;;;;;;;2.65;2.25;;;16.10;55.30;;;;;;5106098;27;45276;-73
2022/12/01 03:45:41;;;;;;;3.35;2.90;;;16.10;55.30;;;;;;5105715;27;45320;-73
2022/12/01 03:48:08;;;;;;;3.03;2.75;;;16.10;55.40;;;;;;5096075;27;45231;-74
2022/12/01 03:50:38;;;;;;;3.10;2.60;;;16.10;55.40;;;;;;5109167;27;45307;-74
2022/12/01 03:53:07;;;;;;;5.05;2.92;;;16.10;55.40;;;;;;5109509;27;45447;-74
2022/12/01 03:55:36;;;;;;;3.22;2.30;;;16.10;55.40;;;;;;5108768;27;45408;-73
2022/12/01 03:58:05;;;;;;;2.80;2.45;;;16.10;55.40;;;;;;5109121;27;45296;-74
2022/12/01 04:00:32;;;;;;;3.25;2.55;;;16.10;55.40;;;;;;5109113;27;45204;-73
2022/12/01 04:03:00;;;;;;;3.80;2.92;;;16.10;55.40;;;;;;5109514;27;45181;-73
2022/12/01 04:05:27;;;;;;;3.05;2.53;;;16.00;55.30;;;;;;5108906;27;46612;-73
2022/12/01 04:07:54;;;;;;;3.72;2.85;;;16.00;55.40;;;;;;5109121;27;45291;-73
2022/12/01 04:10:22;;;;;;;3.60;2.63;;;16.00;55.40;;;;;;5108903;27;45345;-73
2022/12/01 04:12:48;;;;;;;3.70;2.70;;;16.00;55.50;;;;;;5108984;27;45534;-73
2022/12/01 04:15:15;;;;;;;3.85;2.50;;;16.00;55.50;;;;;;5108689;27;45286;-73
2022/12/01 04:17:43;;;;;;;3.03;2.30;;;15.90;55.40;;;;;;5108788;27;45323;-73
2022/12/01 04:20:11;;;;;;;3.72;2.63;;;15.90;55.50;;;;;;5108743;27;45371;-73
2022/12/01 04:22:38;;;;;;;3.55;2.80;;;15.90;55.50;;;;;;5109010;27;45139;-73
2022/12/01 04:25:05;;;;;;;3.13;2.45;;;15.90;55.60;;;;;;5108447;27;47669;-73
2022/12/01 04:27:34;;;;;;;3.38;2.63;;;15.90;55.60;;;;;;5108763;27;45482;-73
2022/12/01 04:30:01;;;;;;;3.60;2.42;;;15.90;55.60;;;;;;5108596;27;45257;-73
2022/12/01 04:32:28;;;;;;;3.03;2.70;;;15.90;55.60;;;;;;5109046;27;45476;-73
2022/12/01 04:34:55;;;;;;;3.35;2.60;;;15.90;55.50;;;;;;5108211;27;46799;-73
2022/12/01 04:37:22;;;;;;;3.67;2.28;;;15.90;55.50;;;;;;5108414;27;45304;-73
2022/12/01 04:39:49;;;;;;;3.05;2.47;;;15.90;55.50;;;;;;5108655;27;45241;-73
2022/12/01 04:42:15;;;;;;;4.43;3.15;;;15.90;55.60;;;;;;5108697;27;45279;-73
2022/12/01 04:44:44;;;;;;;3.63;2.53;;;15.90;55.60;;;;;;5108009;27;47355;-73
2022/12/01 04:47:11;;;;;;;3.30;2.10;;;15.90;55.60;;;;;;5102940;27;45364;-73
2022/12/01 04:49:38;;;;;;;3.72;2.72;;;15.90;55.50;;;;;;5108320;27;45385;-73
2022/12/01 04:52:05;;;;;;;3.78;2.83;;;16.00;55.90;;;;;;5108262;27;45495;-73
2022/12/01 04:54:32;;;;;;;3.13;2.63;;;16.10;55.20;;;;;;5108019;27;45491;-74
2022/12/01 04:56:58;;;;;;;3.35;2.50;;;16.10;55.00;;;;;;5108198;27;45149;-73
2022/12/01 04:59:25;;;;;;;3.60;2.63;;;16.20;54.90;;;;;;5108003;27;45184;-73
2022/12/01 05:01:54;;;;;;;3.53;2.80;;;16.20;54.60;;;;;;5108661;27;45271;-73
2022/12/01 05:04:20;;;;;;;5.00;3.10;;;16.30;54.50;;;;;;5107884;27;45927;-74
2022/12/01 05:06:47;;;;;;;4.45;3.10;;;16.30;54.40;;;;;;5108093;27;45174;-74
2022/12/01 05:09:15;;;;;;;3.25;2.63;;;16.30;55.00;;;;;;5108036;27;45186;-73
2022/12/01 05:11:42;;;;;;;3.00;2.70;;;16.30;54.40;;;;;;5108166;27;45446;-74
2022/12/01 05:14:09;;;;;;;4.20;3.05;;;16.30;54.40;;;;;;5107891;27;47770;-73
2022/12/01 05:16:36;;;;;;;3.85;2.72;;;16.30;54.30;;;;;;5107774;27;45413;-73
2022/12/01 05:21:49;;;;;;;3.90;2.13;;;16.30;54.40;;;;;;5108315;27;45176;-73
2022/12/01 05:24:17;;;;;;;3.95;3.00;;;16.20;54.30;;;;;;5107577;27;46652;-73
2022/12/01 05:26:44;;;;;;;4.15;2.58;;;16.20;54.30;;;;;;5107577;27;45283;-73
2022/12/01 05:29:11;;;;;;;3.67;2.72;;;16.20;54.40;;;;;;5107743;27;45307;-74
2022/12/01 05:31:39;;;;;;;4.22;2.70;;;16.20;54.30;;;;;;5107801;27;45220;-74
2022/12/01 05:34:07;;;;;;;4.00;2.90;;;16.20;54.40;;;;;;5107116;27;46973;-74
2022/12/01 05:36:34;;;;;;;4.03;2.75;;;16.20;54.40;;;;;;5107610;27;45324;-74
2022/12/01 05:39:01;;;;;;;3.60;2.60;;;16.20;54.50;;;;;;5107618;27;45361;-73
2022/12/01 05:41:28;;;;;;;4.40;2.97;;;16.20;54.50;;;;;;5107636;27;45208;-73
2022/12/01 05:43:54;;;;;;;3.92;2.55;;;16.10;54.50;;;;;;5107170;27;45539;-73
2022/12/01 05:46:22;;;;;;;3.35;2.78;;;16.10;54.50;;;;;;5102003;27;45161;-74
2022/12/01 05:48:48;;;;;;;3.50;2.75;;;16.10;54.60;;;;;;5107448;27;45305;-73
2022/12/01 05:51:17;;;;;;;3.10;2.63;;;16.10;54.60;;;;;;5107147;27;45468;-73
2022/12/01 05:53:44;;;;;;;4.45;2.88;;;16.10;54.60;;;;;;5107244;27;46635;-73
2022/12/01 05:56:11;;;;;;;3.25;2.63;;;16.10;54.50;;;;;;5107416;27;45139;-73
2022/12/01 05:58:38;;;;;;;3.10;2.55;;;16.10;54.60;;;;;;5107298;27;45228;-74
2022/12/01 06:01:05;;;;;;;3.25;2.55;;;16.10;54.50;;;;;;5107234;27;45413;-74
2022/12/01 06:03:32;;;;;;;3.63;2.45;;;16.10;54.60;;;;;;5107056;27;45359;-74
2022/12/01 06:05:59;;;;;;;3.22;2.55;;;16.10;54.60;;;;;;5107095;27;45136;-73
2022/12/01 06:08:27;;;;;;;2.78;2.20;;;16.00;54.60;;;;;;5107287;27;45307;-74
2022/12/01 06:10:54;;;;;;;2.35;2.15;;;16.00;54.60;;;;;;5106510;27;45537;-74
2022/12/01 06:13:21;;;;;;;3.42;2.67;;;16.00;54.70;;;;;;5107042;27;45336;-74
2022/12/01 06:15:56;;;;;;;2.83;2.45;;;16.00;54.70;;;;;;5106924;27;45399;-74
2022/12/01 06:18:23;;;;;;;3.58;2.55;;;16.00;54.80;;;;;;5107123;27;45327;-73
2022/12/01 06:20:50;;;;;;;3.45;2.45;;;15.90;54.80;;;;;;5107076;27;45135;-74
2022/12/01 06:23:17;;;;;;;3.17;2.50;;;16.00;54.80;;;;;;5106868;27;45246;-73
2022/12/01 06:25:45;;;;;;;2.72;2.20;;;15.90;54.80;;;;;;5106684;27;45361;-73
2022/12/01 06:28:12;;;;;;;2.88;2.20;;;15.90;54.80;;;;;;5106895;27;45329;-73
2022/12/01 06:30:38;;;;;;;3.58;2.70;;;15.90;54.90;;;;;;5107187;27;45404;-74
2022/12/01 06:33:05;;;;;;;3.50;2.58;;;15.90;54.90;;;;;;5106583;27;46868;-74
2022/12/01 06:35:32;;;;;;;3.60;2.65;;;15.80;54.90;;;;;;5106700;27;45210;-73
2022/12/01 06:37:59;;;;;;;3.03;2.42;;;15.80;54.90;;;;;;5107156;27;45299;-74
2022/12/01 06:40:26;;;;;;;2.80;2.40;;;15.90;55.00;;;;;;5106740;27;45527;-73
2022/12/01 06:42:54;;;;;;;2.78;2.22;;;15.80;54.90;;;;;;5106685;27;45432;-73
2022/12/01 06:45:21;;;;;;;3.05;2.35;;;15.80;54.90;;;;;;5106476;27;45173;-74
2022/12/01 06:47:49;;;;;;;3.10;2.42;;;15.80;54.90;;;;;;5101311;27;45308;-74
2022/12/01 06:50:16;;;;;;;3.05;2.50;;;15.80;54.80;;;;;;5106672;27;45287;-73
2022/12/01 06:52:43;;;;;;;3.35;2.67;;;15.80;54.90;;;;;;5106147;27;45290;-73
2022/12/01 06:55:10;;;;;;;2.63;2.42;;;15.80;54.90;;;;;;5106361;27;45204;-73
2022/12/01 06:57:37;;;;;;;2.92;2.35;;;15.70;54.90;;;;;;5106506;27;45207;-73
2022/12/01 07:00:07;;;;;;;3.80;2.60;;;15.70;54.90;;;;;;5106515;27;45420;-74
2022/12/01 07:02:34;;;;;;;4.65;2.90;;;15.70;54.90;;;;;;5106074;27;46649;-74
2022/12/01 07:05:01;;;;;;;2.95;2.33;;;15.70;54.90;;;;;;5106027;27;45247;-74
2022/12/01 07:07:28;;;;;;;3.42;2.70;;;15.70;55.00;;;;;;5106461;27;45240;-74
2022/12/01 07:09:55;;;;;;;3.40;2.20;;;15.70;55.00;;;;;;5106833;27;45397;-74
2022/12/01 07:12:22;;;;;;;4.10;2.55;;;15.70;55.00;;;;;;5106109;27;46357;-74
2022/12/01 07:14:48;;;;;;;4.50;2.83;;;15.70;55.40;;;;;;5106229;27;45372;-73
2022/12/01 07:17:17;;;;;;;3.00;2.60;;;15.80;54.70;;;;;;5106401;27;45208;-74
2022/12/01 07:19:43;;;;;;;2.63;2.25;;;15.90;54.50;;;;;;5106444;27;45196;-73
2022/12/01 07:22:10;;;;;;;3.22;2.60;;;16.00;54.40;;;;;;5106852;27;46391;-73
2022/12/01 07:24:37;;;;;;;3.33;2.50;;;16.00;54.30;;;;;;5109595;27;45451;-74
2022/12/01 07:27:04;;;;;;;4.45;2.78;;;16.10;54.30;;;;;;5110188;27;45310;-73
2022/12/01 07:29:31;;;;;;;3.17;2.30;;;16.10;54.00;;;;;;5110040;27;45347;-73
2022/12/01 07:31:58;;;;;;;3.67;2.88;;;16.10;53.80;;;;;;5109520;27;47666;-74
2022/12/01 07:34:26;;;;;;;4.68;2.75;;;16.20;53.70;;;;;;5109523;27;45264;-73
2022/12/01 07:36:53;;;;;;;4.30;2.78;;;16.20;53.70;;;;;;5109593;27;45445;-74
2022/12/01 07:39:21;;;;;;;3.10;2.55;;;16.20;53.70;;;;;;5109804;27;45306;-74
2022/12/01 07:41:48;;;;;;;3.50;2.60;;;16.20;53.60;;;;;;5109377;27;46557;-73
2022/12/01 07:44:14;;;;;;;3.63;2.78;;;16.20;53.70;;;;;;5109431;27;45264;-74
2022/12/01 07:46:41;;;;;;;4.70;2.65;;;16.20;53.60;;;;;;5104107;27;45462;-74
2022/12/01 07:49:10;;;;;;;3.63;2.97;;;16.20;53.60;;;;;;5109640;27;45330;-74
2022/12/01 07:51:38;;;;;;;3.92;2.70;;;16.10;53.60;;;;;;5109164;27;45369;-73
2022/12/01 07:54:06;;;;;;;3.65;2.90;;;16.10;53.60;;;;;;5109455;27;45176;-74
2022/12/01 07:56:33;;;;;;;3.13;2.55;;;16.10;53.60;;;;;;5109616;27;45314;-74
2022/12/01 07:59:00;;;;;;;3.50;3.05;;;16.10;53.60;;;;;;5109446;27;45385;-73
2022/12/01 08:01:27;;;;;;;3.90;3.08;;;16.10;53.70;;;;;;5109044;27;45203;-73
2022/12/01 08:03:55;;;;;;;3.78;2.97;;;16.10;53.60;;;;;;5109614;27;45198;-76
2022/12/01 08:06:22;;;;;;;3.15;2.85;;;16.10;53.60;;;;;;5109655;27;45327;-74
2022/12/01 08:08:50;;;;;;;3.20;2.70;;;16.10;53.70;;;;;;5109608;27;45299;-74
2022/12/01 08:11:18;;;;;;;3.25;2.90;;;16.00;54.30;;;;;;5109020;27;45257;-75
2022/12/01 08:13:45;;;;;;;3.50;2.88;;;16.00;53.70;;;;;;5109198;27;45251;-75
2022/12/01 08:16:13;;;;;;;3.90;2.80;;;16.00;53.70;;;;;;5109203;27;45311;-75
2022/12/01 08:18:40;;;;;;;3.88;2.78;;;16.00;53.80;;;;;;5109554;27;45531;-75
2022/12/01 08:21:08;;;;;;;4.72;3.47;;;16.00;53.80;;;;;;5108836;27;45651;-73
2022/12/01 08:23:35;;;;;;;3.38;2.92;;;16.00;53.80;;;;;;5108711;27;45268;-73
2022/12/01 08:26:03;;;;;;;3.17;2.88;;;16.00;53.80;;;;;;5108802;27;45216;-73
2022/12/01 08:28:30;;;;;;;3.67;2.83;;;16.00;53.80;;;;;;5108917;27;45296;-74
2022/12/01 08:30:57;;;;;;;2.88;2.65;;;16.00;53.80;;;;;;5108379;27;46393;-73
2022/12/01 08:33:24;;;;;;;3.47;3.03;;;16.00;53.90;;;;;;5108127;27;45329;-74
2022/12/01 08:35:51;;;;;;;3.38;2.63;;;16.00;53.90;;;;;;5108414;27;45278;-73
2022/12/01 08:38:19;;;;;;;4.03;2.58;;;16.00;53.90;;;;;;5108731;27;45388;-73
2022/12/01 08:40:46;;;;;;;2.70;2.50;;;16.00;53.90;;;;;;5108480;27;46674;-73
2022/12/01 08:43:14;;;;;;;4.40;3.05;;;16.00;54.00;;;;;;5108369;27;45327;-73
2022/12/01 08:45:41;;;;;;;3.72;3.03;;;15.90;54.00;;;;;;5108445;27;45491;-73
2022/12/01 08:48:08;;;;;;;3.58;2.88;;;15.90;54.00;;;;;;5103589;27;45280;-73
2022/12/01 08:50:35;;;;;;;4.20;2.85;;;15.90;54.00;;;;;;5108426;27;46475;-74
2022/12/01 08:53:02;;;;;;;3.92;2.80;;;15.90;54.00;;;;;;5108619;27;45169;-73
2022/12/01 08:55:29;;;;;;;3.33;2.92;;;15.80;54.00;;;;;;5108505;27;45204;-73
2022/12/01 08:57:56;;;;;;;4.05;3.13;;;15.80;54.00;;;;;;5108799;27;45454;-73
2022/12/01 09:00:24;;;;;;;3.45;2.75;;;15.80;54.10;;;;;;5108205;27;45307;-73
2022/12/01 09:02:51;;;;;;;4.28;3.05;;;15.80;54.10;;;;;;5108059;27;45314;-73
2022/12/01 09:05:18;;;;;;;3.85;3.05;;;15.80;54.20;;;;;;5108245;27;45223;-74
2022/12/01 09:08:29;;;;;;;5.57;3.17;;;15.80;54.10;;;;;;5108514;27;45231;-74
2022/12/01 09:10:32;;;;;;;3.22;2.65;;;15.80;54.30;;;;;;5107666;27;46121;-74
2022/12/01 09:12:58;;;;;;;4.22;3.10;;;15.70;54.20;;;;;;5107991;27;45314;-73
2022/12/01 09:15:27;;;;;;;4.10;3.13;;;15.70;54.20;;;;;;5108079;27;45302;-73
2022/12/01 09:17:54;;;;;;;4.15;3.03;;;15.70;54.20;;;;;;5108690;27;45226;-73
2022/12/01 09:20:21;;;;;;;4.88;3.15;;;15.70;54.90;;;;;;5107410;27;45213;-73
2022/12/01 09:22:47;;;;;;;3.70;3.35;;;15.70;54.20;;;;;;5107923;27;45322;-73
2022/12/01 09:25:14;;;;;;;4.10;3.30;;;15.70;54.20;;;;;;5108559;27;45325;-74
2022/12/01 09:27:42;;;;;;;3.10;2.70;;;15.80;54.10;;;;;;5108420;27;45338;-74
2022/12/01 09:30:09;;;;;;;4.20;3.08;;;15.80;54.00;;;;;;5107863;27;45520;-73
2022/12/01 09:32:38;;;;;;;5.18;3.28;;;15.90;53.80;;;;;;5107636;27;45263;-76
2022/12/01 09:35:05;;;;;;;9.77;2.85;;;16.00;53.60;;;;;;5108205;27;45389;-74
2022/12/01 09:37:32;;;;;;;6.93;3.63;;;16.10;53.60;;;;;;5108092;27;45534;-74
2022/12/01 09:39:59;;;;;;;5.97;3.30;;;16.10;53.30;;;;;;5107491;27;45189;-73
2022/12/01 09:42:26;;;;;;;4.60;3.35;;;16.10;53.20;;;;;;5107830;27;45139;-73
2022/12/01 09:44:53;;;;;;;6.90;3.13;;;16.10;53.10;;;;;;5107682;27;45312;-73
2022/12/01 09:47:21;;;;;;;6.50;3.58;;;16.20;53.10;;;;;;5101985;27;45507;-73
2022/12/01 09:49:54;;;;;;;3.78;2.85;;;16.20;53.20;;;;;;5107584;27;46486;-73
2022/12/01 09:52:21;;;;;;;4.35;3.40;;;16.20;53.10;;;;;;5107389;27;45320;-72
2022/12/01 09:54:48;;;;;;;4.75;2.92;;;16.20;53.20;;;;;;5107875;27;45126;-72
2022/12/01 09:57:17;;;;;;;4.75;3.42;;;16.20;53.20;;;;;;5107788;27;45210;-73
2022/12/01 09:59:44;;;;;;;5.85;3.28;;;16.20;53.80;;;;;;5107420;27;46338;-72
2022/12/01 10:02:22;;;;;;;5.55;3.60;;;16.20;53.20;;;;;;5106878;27;45311;-72
2022/12/01 10:04:51;;;;;;;4.10;3.05;;;16.20;53.20;;;;;;5107190;27;45142;-72
2022/12/01 10:07:21;;;;;;;4.57;3.20;;;16.20;53.30;;;;;;5107668;27;45210;-72
2022/12/01 10:09:55;;;;;;;5.72;4.38;;;16.20;53.30;;;;;;5106773;27;45855;-74
2022/12/01 10:12:26;;;;;;;11.25;6.07;;;16.20;52.50;;;;;;5106882;27;45166;-72
2022/12/01 10:14:53;;;;;;;9.75;6.97;;;16.10;51.00;;;;;;5106884;27;45304;-73
2022/12/01 10:17:25;;;;;;;11.65;7.20;;;16.10;49.90;;;;;;5107362;27;45290;-72
2022/12/01 10:19:57;;;;;;;11.48;7.40;;;16.00;49.10;;;;;;5107115;27;45319;-73
2022/12/01 10:23:00;;;;;;;13.07;7.38;;;16.00;48.90;;;;;;5107033;27;45177;-73
2022/12/01 10:25:27;;;;;;;11.05;6.88;;;16.00;48.70;;;;;;5080538;27;45410;-72
2022/12/01 10:28:06;;;;;;;11.25;7.50;;;15.90;48.80;;;;;;5106771;27;45232;-73
2022/12/01 10:30:38;;;;;;;10.98;6.90;;;15.90;48.70;;;;;;5106461;27;46401;-72
2022/12/01 10:33:07;;;;;;;13.95;7.55;;;15.90;48.80;;;;;;5106390;27;45211;-73
2022/12/01 10:35:38;;;;;;;10.13;7.07;;;15.90;48.70;;;;;;5107081;27;45436;-72
2022/12/01 10:38:06;;;;;;;10.45;7.15;;;15.90;48.60;;;;;;5107235;27;45180;-73
2022/12/01 10:40:34;;;;;;;9.68;6.97;;;15.90;47.90;;;;;;5106978;27;45608;-72
2022/12/01 10:43:01;;;;;;;9.98;7.05;;;15.90;48.20;;;;;;5106643;27;45305;-73
2022/12/01 10:45:29;;;;;;;9.43;6.57;;;15.90;48.10;;;;;;5107000;27;45227;-73
2022/12/01 10:48:10;;;;;;;12.40;7.05;;;15.80;47.90;;;;;;5101798;27;45200;-72
2022/12/01 10:50:38;;;;;;;9.90;6.57;;;15.80;47.90;;;;;;5106522;27;46371;-73
2022/12/01 10:53:05;;;;;;;12.15;6.90;;;15.80;47.60;;;;;;5106693;27;45139;-72
2022/12/01 10:55:33;;;;;;;11.38;7.15;;;15.80;47.80;;;;;;5106652;27;45380;-73
2022/12/01 10:58:04;;;;;;;10.88;6.63;;;15.90;47.60;;;;;;5106549;27;45400;-72
2022/12/01 11:00:34;;;;;;;11.35;7.53;;;15.90;47.50;;;;;;5106374;27;45563;-72
2022/12/01 11:03:00;;;;;;;10.77;6.55;;;15.90;47.50;;;;;;5106231;27;45454;-72
2022/12/01 11:05:30;;;;;;;10.18;7.22;;;16.00;47.40;;;;;;5106525;27;45399;-72
2022/12/01 11:07:59;;;;;;;14.85;7.43;;;16.00;47.30;;;;;;5106842;27;45235;-72
2022/12/01 11:10:26;;;;;;;10.23;6.53;;;16.10;47.50;;;;;;5106285;27;46661;-71
2022/12/01 11:12:55;;;;;;;10.52;6.47;;;16.10;47.90;;;;;;5106119;27;45388;-71
2022/12/01 11:15:23;;;;;;;10.90;5.70;;;16.20;48.20;;;;;;5106383;27;45265;-71
2022/12/01 11:17:56;;;;;;;10.63;6.03;;;16.20;48.40;;;;;;5106710;27;45459;-71
2022/12/01 11:20:29;;;;;;;11.57;6.55;;;16.30;48.80;;;;;;5106191;27;46739;-72
2022/12/01 11:23:24;;;;;;;8.70;5.82;;;16.30;49.00;;;;;;5106065;27;45226;-71
2022/12/01 11:26:12;;;;;;;8.85;5.55;;;16.30;49.30;;;;;;5106228;27;45264;-71
2022/12/01 11:28:42;;;;;;;7.78;5.30;;;16.30;49.50;;;;;;5106254;27;45672;-72
2022/12/01 11:31:10;;;;;;;8.02;4.82;;;16.30;49.70;;;;;;5105823;27;46913;-72
2022/12/01 11:33:44;;;;;;;8.52;5.30;;;16.30;49.80;;;;;;5105858;27;45276;-72
2022/12/01 11:36:18;;;;;;;8.68;4.82;;;16.30;50.00;;;;;;5106121;27;45260;-72
2022/12/01 11:38:46;;;;;;;7.80;5.00;;;16.30;50.10;;;;;;5106178;27;45222;-72
2022/12/01 11:41:24;;;;;;;6.90;4.80;;;16.30;50.30;;;;;;5099218;27;46718;-72
2022/12/01 11:43:52;;;;;;;6.15;4.30;;;16.40;50.50;;;;;;5073517;28;45550;-71
2022/12/01 11:46:19;;;;;;;6.68;4.78;;;16.30;50.50;;;;;;5082491;27;45386;-72
2022/12/01 11:48:46;;;;;;;6.38;4.93;;;16.30;50.70;;;;;;5071765;28;45474;-71
2022/12/01 11:51:28;;;;;;;7.88;5.15;;;16.30;50.80;;;;;;5071808;28;46992;-71
2022/12/01 11:54:05;;;;;;;6.05;4.78;;;16.30;50.90;;;;;;5071515;28;45501;-70
2022/12/01 11:56:32;;;;;;;7.32;4.38;;;16.30;51.00;;;;;;5081190;28;45242;-70
2022/12/01 11:59:01;;;;;;;6.07;4.90;;;16.30;51.10;;;;;;5074704;28;45446;-71
2022/12/01 12:01:35;;;;;;;5.82;4.15;;;16.30;51.10;;;;;;5079295;28;45302;-70
2022/12/01 12:04:10;;;;;;;6.10;4.70;;;16.30;51.10;;;;;;5080952;28;45553;-70
2022/12/01 12:06:40;;;;;;;6.43;4.43;;;16.20;51.70;;;;;;5084952;28;45254;-71
2022/12/01 12:09:40;;;;;;;6.38;4.60;;;16.20;51.20;;;;;;5085721;27;45507;-71
2022/12/01 12:12:13;;;;;;;6.80;3.97;;;16.20;51.30;;;;;;5086963;28;46762;-71
2022/12/01 12:14:52;;;;;;;6.30;4.13;;;16.20;51.40;;;;;;5087969;28;45352;-70
2022/12/01 12:17:37;;;;;;;6.63;4.28;;;16.20;51.40;;;;;;5086870;28;45265;-70
2022/12/01 12:20:23;;;;;;;5.50;3.97;;;16.20;51.50;;;;;;5083566;28;45404;-70
2022/12/01 12:22:55;;;;;;;5.22;3.65;;;16.20;51.60;;;;;;5068980;28;46397;-70
2022/12/01 12:25:30;;;;;;;6.03;4.40;;;16.10;51.60;;;;;;5067714;28;45372;-71
2022/12/01 12:28:06;;;;;;;6.78;4.05;;;16.10;51.70;;;;;;5084414;28;45269;-71
2022/12/01 12:30:37;;;;;;;9.23;4.13;;;16.10;51.80;;;;;;5084536;27;45468;-72
2022/12/01 12:33:39;;;;;;;6.38;4.38;;;16.10;51.80;;;;;;5078202;28;46328;-73
2022/12/01 12:36:10;;;;;;;5.55;3.97;;;16.10;51.90;;;;;;5041239;28;45328;-74
2022/12/01 12:38:45;;;;;;;5.95;4.15;;;16.10;52.00;;;;;;5080388;28;45292;-73
2022/12/01 12:41:18;;;;;;;5.95;4.07;;;16.10;52.00;;;;;;5079567;28;45589;-73
2022/12/01 12:43:49;;;;;;;5.63;4.03;;;16.00;52.00;;;;;;5084431;28;46555;-74
2022/12/01 12:46:18;;;;;;;4.68;3.75;;;16.00;52.10;;;;;;5089936;27;45375;-71
2022/12/01 12:48:54;;;;;;;4.97;3.78;;;16.00;52.20;;;;;;5083993;27;45449;-71
2022/12/01 12:51:24;;;;;;;5.70;4.15;;;16.00;52.30;;;;;;5082353;28;45442;-70
2022/12/01 12:53:54;;;;;;;4.90;3.90;;;16.00;52.50;;;;;;5087220;28;45733;-72
2022/12/01 12:56:24;;;;;;;4.95;4.00;;;16.00;52.50;;;;;;5082469;28;45462;-73
2022/12/01 12:58:55;;;;;;;7.40;4.18;;;16.00;52.50;;;;;;5080673;28;45240;-72
2022/12/01 13:01:24;;;;;;;5.07;3.90;;;16.00;52.40;;;;;;5082166;28;45699;-72